sensor_id;sensor_type;location;lat;lon;timestamp;temperature;humidity
42145;DHT22;27813;43.516;11.890;2023-07-31T04:31:38;16.20;81.10
42145;DHT22;27813;43.516;11.890;2023-07-31T04:35:51;16.30;81.00
42145;DHT22;27813;43.516;11.890;2023-07-31T04:39:56;16.40;80.80
42145;DHT22;27813;43.516;11.890;2023-07-31T04:44:00;16.50;80.70
42145;DHT22;27813;43.516;11.890;2023-07-31T04:48:04;16.90;81.00
42145;DHT22;27813;43.516;11.890;2023-07-31T04:52:09;18.40;77.30
42145;DHT22;27813;43.516;11.890;2023-07-31T04:56:12;19.80;73.40
42145;DHT22;27813;43.516;11.890;2023-07-31T05:00:17;20.90;70.40
42145;DHT22;27813;43.516;11.890;2023-07-31T05:04:21;21.60;68.40
42145;DHT22;27813;43.516;11.890;2023-07-31T05:08:24;22.30;66.90
42145;DHT22;27813;43.516;11.890;2023-07-31T05:12:28;23.00;65.50
42145;DHT22;27813;43.516;11.890;2023-07-31T05:16:40;23.70;63.80
42145;DHT22;27813;43.516;11.890;2023-07-31T05:20:45;24.50;62.40
42145;DHT22;27813;43.516;11.890;2023-07-31T05:24:49;25.10;61.20
42145;DHT22;27813;43.516;11.890;2023-07-31T05:28:52;25.90;59.80
42145;DHT22;27813;43.516;11.890;2023-07-31T05:32:56;26.50;58.50
42145;DHT22;27813;43.516;11.890;2023-07-31T05:37:00;27.10;57.50
42145;DHT22;27813;43.516;11.890;2023-07-31T05:41:06;27.80;56.30
42145;DHT22;27813;43.516;11.890;2023-07-31T05:45:10;28.40;55.10
42145;DHT22;27813;43.516;11.890;2023-07-31T05:49:14;29.00;54.00
42145;DHT22;27813;43.516;11.890;2023-07-31T05:53:18;29.40;53.20
42145;DHT22;27813;43.516;11.890;2023-07-31T05:57:22;29.60;52.80
42145;DHT22;27813;43.516;11.890;2023-07-31T06:01:26;30.00;52.10
42145;DHT22;27813;43.516;11.890;2023-07-31T06:05:30;30.50;51.20
42145;DHT22;27813;43.516;11.890;2023-07-31T06:09:34;30.90;50.40
42145;DHT22;27813;43.516;11.890;2023-07-31T06:13:37;31.30;49.50
42145;DHT22;27813;43.516;11.890;2023-07-31T06:17:44;31.90;48.70
42145;DHT22;27813;43.516;11.890;2023-07-31T06:21:48;32.50;47.70
42145;DHT22;27813;43.516;11.890;2023-07-31T06:25:52;33.00;46.90
42145;DHT22;27813;43.516;11.890;2023-07-31T06:29:55;33.50;46.10
42145;DHT22;27813;43.516;11.890;2023-07-31T06:33:59;34.00;45.30
42145;DHT22;27813;43.516;11.890;2023-07-31T06:38:03;34.50;44.30
42145;DHT22;27813;43.516;11.890;2023-07-31T06:42:07;34.90;43.60
42145;DHT22;27813;43.516;11.890;2023-07-31T06:46:11;35.20;43.00
42145;DHT22;27813;43.516;11.890;2023-07-31T06:50:15;35.50;42.20
42145;DHT22;27813;43.516;11.890;2023-07-31T06:54:19;35.80;41.50
42145;DHT22;27813;43.516;11.890;2023-07-31T06:58:22;36.00;40.60
42145;DHT22;27813;43.516;11.890;2023-07-31T07:02:26;35.80;40.40
42145;DHT22;27813;43.516;11.890;2023-07-31T07:06:30;34.60;41.60
42145;DHT22;27813;43.516;11.890;2023-07-31T07:10:34;32.90;44.60
42145;DHT22;27813;43.516;11.890;2023-07-31T07:14:38;31.60;46.90
42145;DHT22;27813;43.516;11.890;2023-07-31T07:18:41;30.60;48.40
42145;DHT22;27813;43.516;11.890;2023-07-31T07:23:07;30.00;49.60
42145;DHT22;27813;43.516;11.890;2023-07-31T07:27:15;29.50;50.50
42145;DHT22;27813;43.516;11.890;2023-07-31T07:31:19;29.30;50.90
42145;DHT22;27813;43.516;11.890;2023-07-31T07:35:22;29.10;51.10
42145;DHT22;27813;43.516;11.890;2023-07-31T07:39:26;28.90;51.40
42145;DHT22;27813;43.516;11.890;2023-07-31T07:43:30;28.80;51.60
42145;DHT22;27813;43.516;11.890;2023-07-31T07:47:35;28.80;51.60
42145;DHT22;27813;43.516;11.890;2023-07-31T07:51:39;28.90;51.40
42145;DHT22;27813;43.516;11.890;2023-07-31T07:55:44;28.90;51.30
42145;DHT22;27813;43.516;11.890;2023-07-31T07:59:49;29.00;51.00
42145;DHT22;27813;43.516;11.890;2023-07-31T08:03:53;29.00;51.00
42145;DHT22;27813;43.516;11.890;2023-07-31T08:07:57;29.10;51.00
42145;DHT22;27813;43.516;11.890;2023-07-31T08:12:00;29.20;50.90
42145;DHT22;27813;43.516;11.890;2023-07-31T08:16:07;29.30;50.50
42145;DHT22;27813;43.516;11.890;2023-07-31T08:20:11;29.50;50.30
42145;DHT22;27813;43.516;11.890;2023-07-31T08:24:15;30.00;49.80
42145;DHT22;27813;43.516;11.890;2023-07-31T08:28:19;30.40;49.10
42145;DHT22;27813;43.516;11.890;2023-07-31T08:32:23;30.90;48.20
42145;DHT22;27813;43.516;11.890;2023-07-31T08:36:27;31.10;47.70
42145;DHT22;27813;43.516;11.890;2023-07-31T08:40:36;31.20;47.30
42145;DHT22;27813;43.516;11.890;2023-07-31T08:44:43;31.20;47.20
42145;DHT22;27813;43.516;11.890;2023-07-31T08:48:48;31.20;47.10
42145;DHT22;27813;43.516;11.890;2023-07-31T08:52:52;31.30;46.90
42145;DHT22;27813;43.516;11.890;2023-07-31T08:57:00;31.50;46.50
42145;DHT22;27813;43.516;11.890;2023-07-31T09:01:05;31.80;46.10
42145;DHT22;27813;43.516;11.890;2023-07-31T09:05:11;32.00;45.20
42145;DHT22;27813;43.516;11.890;2023-07-31T09:09:20;32.20;44.90
42145;DHT22;27813;43.516;11.890;2023-07-31T09:13:24;32.50;44.40
42145;DHT22;27813;43.516;11.890;2023-07-31T09:17:36;32.80;43.80
42145;DHT22;27813;43.516;11.890;2023-07-31T09:21:50;33.10;43.00
42145;DHT22;27813;43.516;11.890;2023-07-31T09:25:53;33.40;42.50
42145;DHT22;27813;43.516;11.890;2023-07-31T09:30:00;33.70;42.30
42145;DHT22;27813;43.516;11.890;2023-07-31T09:34:04;34.10;41.90
42145;DHT22;27813;43.516;11.890;2023-07-31T09:38:12;34.60;41.20
42145;DHT22;27813;43.516;11.890;2023-07-31T09:42:26;35.00;40.40
42145;DHT22;27813;43.516;11.890;2023-07-31T09:46:35;35.50;40.00
42145;DHT22;27813;43.516;11.890;2023-07-31T09:50:47;35.90;39.30
42145;DHT22;27813;43.516;11.890;2023-07-31T09:54:51;36.70;38.00
42145;DHT22;27813;43.516;11.890;2023-07-31T09:58:56;37.50;36.90
42145;DHT22;27813;43.516;11.890;2023-07-31T10:03:01;37.90;36.10
42145;DHT22;27813;43.516;11.890;2023-07-31T10:07:06;38.10;35.50
42145;DHT22;27813;43.516;11.890;2023-07-31T10:11:10;38.60;34.70
42145;DHT22;27813;43.516;11.890;2023-07-31T10:15:15;39.60;33.10
42145;DHT22;27813;43.516;11.890;2023-07-31T10:19:20;40.40;31.60
42145;DHT22;27813;43.516;11.890;2023-07-31T10:23:25;41.10;30.60
42145;DHT22;27813;43.516;11.890;2023-07-31T10:27:29;41.50;29.90
42145;DHT22;27813;43.516;11.890;2023-07-31T10:31:34;41.70;29.50
42145;DHT22;27813;43.516;11.890;2023-07-31T10:35:39;41.90;29.10
42145;DHT22;27813;43.516;11.890;2023-07-31T10:39:43;42.20;28.40
42145;DHT22;27813;43.516;11.890;2023-07-31T10:43:47;42.40;27.90
42145;DHT22;27813;43.516;11.890;2023-07-31T10:48:02;42.50;27.70
42145;DHT22;27813;43.516;11.890;2023-07-31T10:52:10;42.50;27.70
42145;DHT22;27813;43.516;11.890;2023-07-31T10:56:16;42.80;27.60
42145;DHT22;27813;43.516;11.890;2023-07-31T11:00:29;43.00;27.20
42145;DHT22;27813;43.516;11.890;2023-07-31T11:04:33;42.90;27.10
42145;DHT22;27813;43.516;11.890;2023-07-31T11:08:50;42.90;27.20
42145;DHT22;27813;43.516;11.890;2023-07-31T11:12:56;43.00;26.80
42145;DHT22;27813;43.516;11.890;2023-07-31T11:17:05;43.10;26.80
42145;DHT22;27813;43.516;11.890;2023-07-31T11:21:23;43.30;26.70
42145;DHT22;27813;43.516;11.890;2023-07-31T11:25:29;43.20;26.50
42145;DHT22;27813;43.516;11.890;2023-07-31T11:29:35;43.10;26.60
42145;DHT22;27813;43.516;11.890;2023-07-31T11:33:39;43.30;26.50
42145;DHT22;27813;43.516;11.890;2023-07-31T11:37:44;43.20;26.60
42145;DHT22;27813;43.516;11.890;2023-07-31T11:41:49;43.30;26.50
42145;DHT22;27813;43.516;11.890;2023-07-31T11:45:56;43.40;26.30
42145;DHT22;27813;43.516;11.890;2023-07-31T11:50:02;43.40;26.20
42145;DHT22;27813;43.516;11.890;2023-07-31T11:54:09;43.30;26.20
42145;DHT22;27813;43.516;11.890;2023-07-31T11:58:16;43.20;26.30
42145;DHT22;27813;43.516;11.890;2023-07-31T12:02:24;43.30;26.30
42145;DHT22;27813;43.516;11.890;2023-07-31T12:06:37;43.30;26.20
42145;DHT22;27813;43.516;11.890;2023-07-31T12:10:43;43.20;25.90
42145;DHT22;27813;43.516;11.890;2023-07-31T12:14:50;43.10;26.00
42145;DHT22;27813;43.516;11.890;2023-07-31T12:18:54;43.00;25.90
42145;DHT22;27813;43.516;11.890;2023-07-31T12:22:58;42.90;26.00
42145;DHT22;27813;43.516;11.890;2023-07-31T12:27:11;42.70;25.90
42145;DHT22;27813;43.516;11.890;2023-07-31T12:31:17;42.60;25.70
42145;DHT22;27813;43.516;11.890;2023-07-31T12:35:22;42.40;25.60
42145;DHT22;27813;43.516;11.890;2023-07-31T12:39:26;42.00;25.90
42145;DHT22;27813;43.516;11.890;2023-07-31T12:43:30;41.80;26.00
42145;DHT22;27813;43.516;11.890;2023-07-31T12:47:35;41.50;26.20
42145;DHT22;27813;43.516;11.890;2023-07-31T12:51:39;41.30;26.30
42145;DHT22;27813;43.516;11.890;2023-07-31T12:55:43;41.20;26.30
42145;DHT22;27813;43.516;11.890;2023-07-31T12:59:48;41.20;26.20
42145;DHT22;27813;43.516;11.890;2023-07-31T13:03:59;41.10;26.20
42145;DHT22;27813;43.516;11.890;2023-07-31T13:08:03;41.00;26.10
42145;DHT22;27813;43.516;11.890;2023-07-31T13:12:09;40.40;26.50
42145;DHT22;27813;43.516;11.890;2023-07-31T13:16:13;40.00;26.80
42145;DHT22;27813;43.516;11.890;2023-07-31T13:20:17;39.60;27.10
42145;DHT22;27813;43.516;11.890;2023-07-31T13:24:21;39.40;27.30
42145;DHT22;27813;43.516;11.890;2023-07-31T13:28:25;39.20;27.30
42145;DHT22;27813;43.516;11.890;2023-07-31T13:32:29;38.80;27.60
42145;DHT22;27813;43.516;11.890;2023-07-31T13:36:33;38.30;28.00
42145;DHT22;27813;43.516;11.890;2023-07-31T13:40:38;37.80;28.60
42145;DHT22;27813;43.516;11.890;2023-07-31T13:44:42;37.40;29.00
42145;DHT22;27813;43.516;11.890;2023-07-31T13:48:46;37.20;29.30
42145;DHT22;27813;43.516;11.890;2023-07-31T13:52:50;37.10;29.50
42145;DHT22;27813;43.516;11.890;2023-07-31T13:56:55;36.90;29.70
42145;DHT22;27813;43.516;11.890;2023-07-31T14:01:00;36.70;29.80
42145;DHT22;27813;43.516;11.890;2023-07-31T14:05:05;36.60;29.90
42145;DHT22;27813;43.516;11.890;2023-07-31T14:09:11;36.50;30.20
42145;DHT22;27813;43.516;11.890;2023-07-31T14:13:16;36.50;30.40
42145;DHT22;27813;43.516;11.890;2023-07-31T14:17:23;36.50;30.50
42145;DHT22;27813;43.516;11.890;2023-07-31T14:21:27;36.50;30.50
42145;DHT22;27813;43.516;11.890;2023-07-31T14:25:31;36.40;30.20
42145;DHT22;27813;43.516;11.890;2023-07-31T14:29:35;36.30;30.30
42145;DHT22;27813;43.516;11.890;2023-07-31T14:33:39;36.30;30.30
42145;DHT22;27813;43.516;11.890;2023-07-31T14:37:45;36.20;30.40
42145;DHT22;27813;43.516;11.890;2023-07-31T14:41:49;36.10;30.50
42145;DHT22;27813;43.516;11.890;2023-07-31T14:45:53;36.00;30.70
42145;DHT22;27813;43.516;11.890;2023-07-31T14:50:00;35.80;30.90
42145;DHT22;27813;43.516;11.890;2023-07-31T14:54:04;35.60;31.00
42145;DHT22;27813;43.516;11.890;2023-07-31T14:58:08;35.50;31.30
42145;DHT22;27813;43.516;11.890;2023-07-31T15:02:15;35.40;31.40
42145;DHT22;27813;43.516;11.890;2023-07-31T15:06:40;35.30;31.50
42145;DHT22;27813;43.516;11.890;2023-07-31T15:10:44;35.30;31.70
42145;DHT22;27813;43.516;11.890;2023-07-31T15:14:49;35.20;31.80
42145;DHT22;27813;43.516;11.890;2023-07-31T15:18:53;35.10;31.80
42145;DHT22;27813;43.516;11.890;2023-07-31T15:22:57;34.80;32.10
42145;DHT22;27813;43.516;11.890;2023-07-31T15:27:01;34.60;32.30
42145;DHT22;27813;43.516;11.890;2023-07-31T15:31:06;34.50;32.50
42145;DHT22;27813;43.516;11.890;2023-07-31T15:35:10;34.30;32.70
42145;DHT22;27813;43.516;11.890;2023-07-31T15:39:14;34.10;32.90
42145;DHT22;27813;43.516;11.890;2023-07-31T15:43:19;34.00;33.10
42145;DHT22;27813;43.516;11.890;2023-07-31T15:47:24;33.80;33.30
42145;DHT22;27813;43.516;11.890;2023-07-31T15:51:28;33.60;33.70
42145;DHT22;27813;43.516;11.890;2023-07-31T15:55:33;33.50;34.00
42145;DHT22;27813;43.516;11.890;2023-07-31T15:59:37;33.40;34.20
42145;DHT22;27813;43.516;11.890;2023-07-31T16:03:42;33.20;34.50
42145;DHT22;27813;43.516;11.890;2023-07-31T16:07:47;33.10;34.80
42145;DHT22;27813;43.516;11.890;2023-07-31T16:11:52;32.90;35.10
42145;DHT22;27813;43.516;11.890;2023-07-31T16:15:59;32.80;35.40
42145;DHT22;27813;43.516;11.890;2023-07-31T16:20:04;32.50;35.60
42145;DHT22;27813;43.516;11.890;2023-07-31T16:38:50;32.30;36.20
42145;DHT22;27813;43.516;11.890;2023-07-31T16:42:56;32.00;37.80
42145;DHT22;27813;43.516;11.890;2023-07-31T16:47:00;32.00;37.80
42145;DHT22;27813;43.516;11.890;2023-07-31T16:51:04;32.00;38.00
42145;DHT22;27813;43.516;11.890;2023-07-31T16:55:09;31.80;38.20
42145;DHT22;27813;43.516;11.890;2023-07-31T16:59:14;31.70;38.40
42145;DHT22;27813;43.516;11.890;2023-07-31T17:03:18;31.50;38.50
42145;DHT22;27813;43.516;11.890;2023-07-31T17:07:23;31.40;38.70
42145;DHT22;27813;43.516;11.890;2023-07-31T17:11:30;31.30;39.20
42145;DHT22;27813;43.516;11.890;2023-07-31T17:16:14;31.50;39.60
42145;DHT22;27813;43.516;11.890;2023-07-31T17:21:33;31.60;39.70
42145;DHT22;27813;43.516;11.890;2023-07-31T17:32:15;32.20;38.90
42145;DHT22;27813;43.516;11.890;2023-07-31T17:36:30;32.70;38.30
42145;DHT22;27813;43.516;11.890;2023-07-31T17:40:42;32.80;38.10
42145;DHT22;27813;43.516;11.890;2023-07-31T17:46:05;32.60;38.40
42145;DHT22;27813;43.516;11.890;2023-07-31T17:51:51;32.20;39.20
42145;DHT22;27813;43.516;11.890;2023-07-31T17:56:29;31.70;39.90
42145;DHT22;27813;43.516;11.890;2023-07-31T18:00:35;31.10;41.00
42145;DHT22;27813;43.516;11.890;2023-07-31T18:04:40;30.80;41.70
42145;DHT22;27813;43.516;11.890;2023-07-31T18:08:44;30.40;42.30
42145;DHT22;27813;43.516;11.890;2023-07-31T18:12:48;30.30;42.90
42145;DHT22;27813;43.516;11.890;2023-07-31T18:16:52;30.20;43.30
42145;DHT22;27813;43.516;11.890;2023-07-31T18:20:56;30.00;43.90
42145;DHT22;27813;43.516;11.890;2023-07-31T18:25:02;29.50;44.70
42145;DHT22;27813;43.516;11.890;2023-07-31T18:29:07;29.00;45.80
42145;DHT22;27813;43.516;11.890;2023-07-31T18:33:11;28.60;46.50
42145;DHT22;27813;43.516;11.890;2023-07-31T18:37:15;28.30;47.20
42145;DHT22;27813;43.516;11.890;2023-07-31T18:41:19;28.00;47.60
42145;DHT22;27813;43.516;11.890;2023-07-31T18:45:24;27.80;48.20
42145;DHT22;27813;43.516;11.890;2023-07-31T18:49:28;27.60;48.70
42145;DHT22;27813;43.516;11.890;2023-07-31T18:53:32;27.30;49.30
42145;DHT22;27813;43.516;11.890;2023-07-31T18:57:37;27.00;50.00
42145;DHT22;27813;43.516;11.890;2023-07-31T19:01:41;26.80;50.70
42145;DHT22;27813;43.516;11.890;2023-07-31T19:06:01;26.50;51.40
42145;DHT22;27813;43.516;11.890;2023-07-31T19:10:06;26.30;52.00
42145;DHT22;27813;43.516;11.890;2023-07-31T19:14:19;26.00;52.70
42145;DHT22;27813;43.516;11.890;2023-07-31T19:18:23;25.90;53.00
42145;DHT22;27813;43.516;11.890;2023-07-31T19:22:28;25.70;53.10
42145;DHT22;27813;43.516;11.890;2023-07-31T19:26:32;25.70;53.60
42145;DHT22;27813;43.516;11.890;2023-07-31T19:30:36;25.60;54.00
42145;DHT22;27813;43.516;11.890;2023-07-31T19:34:40;25.60;54.10
42145;DHT22;27813;43.516;11.890;2023-07-31T19:38:44;25.50;54.20
42145;DHT22;27813;43.516;11.890;2023-07-31T19:42:49;25.30;54.60
42145;DHT22;27813;43.516;11.890;2023-07-31T19:46:58;25.10;55.30
42145;DHT22;27813;43.516;11.890;2023-07-31T19:51:02;25.00;55.80
42145;DHT22;27813;43.516;11.890;2023-07-31T19:55:08;24.80;56.20
42145;DHT22;27813;43.516;11.890;2023-07-31T19:59:13;24.50;56.50
42145;DHT22;27813;43.516;11.890;2023-07-31T20:03:17;24.50;57.10
42145;DHT22;27813;43.516;11.890;2023-07-31T20:07:21;24.30;57.90
42145;DHT22;27813;43.516;11.890;2023-07-31T20:11:27;24.10;59.10
42145;DHT22;27813;43.516;11.890;2023-07-31T20:15:31;24.00;59.50
42145;DHT22;27813;43.516;11.890;2023-07-31T20:19:36;24.00;59.30
42145;DHT22;27813;43.516;11.890;2023-07-31T20:23:44;24.00;59.20
42145;DHT22;27813;43.516;11.890;2023-07-31T20:27:50;23.90;59.20
42145;DHT22;27813;43.516;11.890;2023-07-31T20:31:54;23.80;59.80
42145;DHT22;27813;43.516;11.890;2023-07-31T20:35:58;23.70;60.00
42145;DHT22;27813;43.516;11.890;2023-07-31T20:40:08;23.50;60.40
42145;DHT22;27813;43.516;11.890;2023-07-31T20:44:12;23.30;60.90
42145;DHT22;27813;43.516;11.890;2023-07-31T20:48:16;23.20;61.20
42145;DHT22;27813;43.516;11.890;2023-07-31T20:52:40;23.10;61.50
42145;DHT22;27813;43.516;11.890;2023-07-31T20:56:45;23.00;61.90
42145;DHT22;27813;43.516;11.890;2023-07-31T21:00:49;22.90;61.90
42145;DHT22;27813;43.516;11.890;2023-07-31T21:04:56;22.90;62.10
42145;DHT22;27813;43.516;11.890;2023-07-31T21:09:01;22.80;62.10
42145;DHT22;27813;43.516;11.890;2023-07-31T21:13:07;22.60;62.40
42145;DHT22;27813;43.516;11.890;2023-07-31T21:17:11;22.60;62.40
42145;DHT22;27813;43.516;11.890;2023-07-31T21:21:16;22.50;62.40
42145;DHT22;27813;43.516;11.890;2023-07-31T21:25:20;22.50;62.50
42145;DHT22;27813;43.516;11.890;2023-07-31T21:29:24;22.40;62.70
42145;DHT22;27813;43.516;11.890;2023-07-31T21:33:31;22.20;62.90
42145;DHT22;27813;43.516;11.890;2023-07-31T21:37:35;22.10;63.10
42145;DHT22;27813;43.516;11.890;2023-07-31T21:41:41;22.00;63.50
42145;DHT22;27813;43.516;11.890;2023-07-31T21:45:46;22.00;63.60
42145;DHT22;27813;43.516;11.890;2023-07-31T21:49:50;21.80;63.80
42145;DHT22;27813;43.516;11.890;2023-07-31T21:53:55;21.80;63.90
42145;DHT22;27813;43.516;11.890;2023-07-31T21:57:59;21.70;63.90
42145;DHT22;27813;43.516;11.890;2023-07-31T22:02:04;21.60;64.00
42145;DHT22;27813;43.516;11.890;2023-07-31T22:06:08;21.50;64.20
42145;DHT22;27813;43.516;11.890;2023-07-31T22:10:13;21.30;64.40
42145;DHT22;27813;43.516;11.890;2023-07-31T22:14:17;21.20;64.60
42145;DHT22;27813;43.516;11.890;2023-07-31T22:18:21;21.10;64.80
42145;DHT22;27813;43.516;11.890;2023-07-31T22:22:27;21.00;65.30
42145;DHT22;27813;43.516;11.890;2023-07-31T22:26:32;21.00;65.30
42145;DHT22;27813;43.516;11.890;2023-07-31T22:30:36;21.00;65.40
42145;DHT22;27813;43.516;11.890;2023-07-31T22:34:43;20.80;65.50
42145;DHT22;27813;43.516;11.890;2023-07-31T22:38:48;20.70;65.70
42145;DHT22;27813;43.516;11.890;2023-07-31T22:42:53;20.60;65.80
42145;DHT22;27813;43.516;11.890;2023-07-31T22:47:09;20.50;66.00
42145;DHT22;27813;43.516;11.890;2023-07-31T22:51:19;20.40;66.20
42145;DHT22;27813;43.516;11.890;2023-07-31T22:55:52;20.40;66.30
42145;DHT22;27813;43.516;11.890;2023-07-31T22:59:57;20.30;66.50
42145;DHT22;27813;43.516;11.890;2023-07-31T23:04:07;20.30;66.60
42145;DHT22;27813;43.516;11.890;2023-07-31T23:08:13;20.20;66.80
42145;DHT22;27813;43.516;11.890;2023-07-31T23:12:18;20.10;67.10
42145;DHT22;27813;43.516;11.890;2023-07-31T23:16:24;20.00;67.40
42145;DHT22;27813;43.516;11.890;2023-07-31T23:20:32;20.00;67.80
42145;DHT22;27813;43.516;11.890;2023-07-31T23:24:39;19.80;67.80
42145;DHT22;27813;43.516;11.890;2023-07-31T23:28:45;19.80;68.10
